Moose Pass, Alaska
Current Conditions -  °F | °C
As of 3:53 PM on Tuesday 21 Oct 2014 (Local Time) from PAWD Reporting Station
Clear Clear  
Wind Chill: 43°   Ceiling: Unl
Heat Index: 48°   Visibility: 10mi
Dew Point: 36°   Wind: 10mph
Humidity: 63%   Direction: 360°N
Pressure: 29.2"   Gusts: NA
Location:  60.49°N, 149.38°W
Report Text: PAWD 212353Z AUTO 36009KT 10SM CLR 09/02 A2920 RMK AO2 SLP886 T00890022 10089 20022 57017 TSNO
Loading
Personal Weather Stations






























Interactive Weather Map
Tropical Storm Tracking
New forecast layout! Learn more

10-Day Weather Forecast

Advertisements
Track Severe Weather on mobile